createdAt,value
2022-12-18T13:07:29.349Z,102580.66
2022-12-18T13:10:27.254Z,102578.75
2022-12-18T13:12:59.743Z,102583.63
2022-12-18T13:15:38.103Z,102587.19
2022-12-18T13:18:23.763Z,102579.50
2022-12-18T13:21:05.339Z,102566.81
2022-12-18T13:23:46.003Z,102597.34
2022-12-18T13:26:37.602Z,102605.56
2022-12-18T13:29:08.216Z,102604.16
2022-12-18T13:32:18.364Z,102574.03
2022-12-18T13:34:49.933Z,102601.78
2022-12-18T13:37:43.835Z,102606.22
2022-12-18T13:41:01.324Z,102619.66
2022-12-18T13:43:39.032Z,102645.97
2022-12-18T13:46:22.056Z,102642.59
2022-12-18T13:49:00.407Z,102635.31
2022-12-18T13:51:31.885Z,102624.25
2022-12-18T13:54:04.246Z,102657.97
2022-12-18T13:59:16.889Z,102674.56
2022-12-18T14:01:53.196Z,102673.31
2022-12-18T14:04:27.135Z,102663.56
2022-12-18T14:07:01.630Z,102645.94
2022-12-18T14:09:34.263Z,102668.72
2022-12-18T14:12:23.598Z,102660.44
2022-12-18T14:14:57.540Z,102671.09
2022-12-18T14:17:28.232Z,102671.63
2022-12-18T14:19:58.756Z,102679.47
2022-12-18T14:22:31.274Z,102682.72
2022-12-18T14:25:20.416Z,102694.97
2022-12-18T14:27:52.361Z,102684.75
2022-12-18T14:30:34.307Z,102680.75
2022-12-18T14:33:07.087Z,102695.22
2022-12-18T14:35:38.957Z,102696.72
2022-12-18T14:38:33.639Z,102698.19
2022-12-18T14:41:05.442Z,102696.72
2022-12-18T14:43:37.850Z,102702.72
2022-12-18T14:46:32.009Z,102706.91
2022-12-18T14:49:02.931Z,102702.66
2022-12-18T14:51:34.949Z,102702.59
2022-12-18T14:54:09.061Z,102710.56
2022-12-18T14:56:41.573Z,102713.78
2022-12-18T14:59:23.959Z,102717.16
2022-12-18T15:02:03.564Z,102713.69
2022-12-18T15:04:40.156Z,102701.88
2022-12-18T15:07:17.451Z,102709.47
2022-12-18T15:10:04.495Z,102707.06
2022-12-18T15:12:39.436Z,102712.31
2022-12-18T15:15:24.778Z,102719.88
2022-12-18T15:18:04.292Z,102718.25
2022-12-18T15:20:36.710Z,102714.56
2022-12-18T15:23:06.883Z,102719.84
2022-12-18T15:25:40.544Z,102724.59
2022-12-18T15:28:22.013Z,102737.50
2022-12-18T15:31:08.645Z,102738.72
2022-12-18T15:33:43.552Z,102735.94
2022-12-18T15:36:16.560Z,102716.56
2022-12-18T15:38:50.978Z,102757.03
2022-12-18T15:41:24.982Z,102769.09
2022-12-18T15:43:54.181Z,102762.06
2022-12-18T15:46:26.299Z,102762.78
2022-12-18T15:49:02.752Z,102778.13
2022-12-18T15:51:36.387Z,102781.81
2022-12-18T15:54:08.836Z,102783.44
2022-12-18T15:56:51.256Z,102791.84
2022-12-18T15:59:23.364Z,102791.84
2022-12-18T16:01:56.242Z,102786.44
2022-12-18T16:04:29.029Z,102782.94
2022-12-18T16:07:14.496Z,102767.00
2022-12-18T16:09:45.743Z,102796.19
2022-12-18T16:12:21.464Z,102800.25
2022-12-18T16:14:51.632Z,102814.53
2022-12-18T16:17:22.423Z,102811.75
2022-12-18T16:19:55.318Z,102820.28
2022-12-18T16:22:27.833Z,102827.50
2022-12-18T16:24:59.148Z,102821.66
2022-12-18T16:27:30.008Z,102816.53
2022-12-18T16:30:00.278Z,102821.00
2022-12-18T16:32:30.564Z,102816.59
2022-12-18T16:35:06.642Z,102810.91
2022-12-18T16:37:36.822Z,102814.59
2022-12-18T16:40:09.988Z,102825.19
2022-12-18T16:42:40.422Z,102830.53
2022-12-18T16:45:12.676Z,102838.03
2022-12-18T16:47:43.057Z,102835.59
2022-12-18T16:50:16.196Z,102845.91
2022-12-18T16:52:46.321Z,102849.47
2022-12-18T16:55:16.454Z,102847.09
2022-12-18T16:57:46.524Z,102840.47
2022-12-18T17:00:18.470Z,102837.34
2022-12-18T17:02:48.924Z,102829.81
2022-12-18T17:05:21.846Z,102842.97
2022-12-18T17:07:51.946Z,102841.75
2022-12-18T17:10:22.016Z,102847.28
2022-12-18T17:12:54.285Z,102851.59
2022-12-18T17:15:24.397Z,102852.75
2022-12-18T17:17:54.560Z,102856.84
2022-12-18T17:20:28.704Z,102856.75
2022-12-18T17:22:58.761Z,102851.81
2022-12-18T17:25:30.262Z,102856.25
2022-12-18T17:28:00.316Z,102847.88
2022-12-18T17:30:30.430Z,102854.31
2022-12-18T17:33:00.506Z,102847.97
2022-12-18T17:35:33.890Z,102854.44
2022-12-18T17:38:03.980Z,102848.97
2022-12-18T17:40:36.097Z,102861.44
2022-12-18T17:43:06.530Z,102864.28
2022-12-18T17:45:38.638Z,102867.22
2022-12-18T17:48:09.529Z,102873.03
2022-12-18T17:50:42.543Z,102885.84
2022-12-18T17:53:12.625Z,102895.81
2022-12-18T17:55:42.870Z,102898.44
2022-12-18T17:58:13.081Z,102899.03
2022-12-18T18:00:43.265Z,102905.03
2022-12-18T18:03:13.623Z,102903.47
2022-12-18T18:05:46.564Z,102902.25
2022-12-18T18:08:17.077Z,102904.00
2022-12-18T18:10:49.423Z,102897.72
2022-12-18T18:13:39.721Z,102904.72
2022-12-18T18:16:13.316Z,102911.53
2022-12-18T18:18:43.442Z,102911.31
2022-12-18T18:21:16.239Z,102916.97
2022-12-18T18:23:46.453Z,102910.44
2022-12-18T18:26:18.832Z,102926.75
2022-12-18T18:28:49.033Z,102918.25
2022-12-18T18:31:19.395Z,102941.53
2022-12-18T18:33:50.031Z,102932.75
2022-12-18T18:36:22.857Z,102930.13
2022-12-18T18:38:53.370Z,102935.34
2022-12-18T18:41:24.888Z,102936.00
2022-12-18T18:43:58.863Z,102927.69
2022-12-18T18:46:29.684Z,102938.81
2022-12-18T18:49:01.768Z,102949.56
2022-12-18T18:51:35.184Z,102948.69
2022-12-18T18:54:05.780Z,102952.88
2022-12-18T18:59:31.202Z,102967.69
2022-12-18T19:02:04.384Z,102965.16
2022-12-18T19:04:37.799Z,102972.06
2022-12-18T19:07:25.394Z,102979.88
2022-12-18T19:10:03.890Z,102987.03
2022-12-18T19:12:49.955Z,102974.09
2022-12-18T19:15:20.123Z,102989.09
2022-12-18T19:17:50.507Z,103000.16
2022-12-18T19:20:21.133Z,103000.44
2022-12-18T19:22:55.728Z,102996.13
2022-12-18T19:25:38.576Z,103002.25
2022-12-18T19:28:18.152Z,102995.50
2022-12-18T19:30:59.122Z,102997.28
2022-12-18T19:33:43.081Z,103002.19
2022-12-18T19:36:16.620Z,103008.78
2022-12-18T19:38:50.091Z,103007.06
2022-12-18T19:41:21.660Z,103015.63
2022-12-18T19:43:52.753Z,103002.53
2022-12-18T19:46:25.079Z,103011.69
2022-12-18T19:48:55.353Z,103018.19
2022-12-18T19:51:29.067Z,103010.91
2022-12-18T19:54:02.739Z,103020.91
2022-12-18T19:56:34.769Z,103021.06
2022-12-18T19:59:05.783Z,103023.72
2022-12-18T20:01:36.216Z,103031.38
2022-12-18T20:04:06.829Z,103036.31
2022-12-18T20:06:39.569Z,103044.53
2022-12-18T20:09:13.905Z,103028.47
2022-12-18T20:11:44.096Z,103035.25
2022-12-18T20:14:19.612Z,103035.69
2022-12-18T20:19:43.791Z,103041.06
2022-12-18T20:20:47.431Z,103045.38
2022-12-18T20:22:14.044Z,103040.94
2022-12-18T20:24:47.139Z,103047.31
2022-12-18T20:27:19.708Z,103052.34
2022-12-18T20:29:49.917Z,103053.72
2022-12-18T20:32:20.127Z,103060.22
2022-12-18T20:34:50.386Z,103054.09
2022-12-18T20:37:20.861Z,103045.59
2022-12-18T20:39:54.223Z,103056.44
2022-12-18T20:42:24.380Z,103041.69
2022-12-18T20:44:54.540Z,103038.50
2022-12-18T20:47:24.631Z,103049.28
2022-12-18T20:49:54.849Z,103044.03
2022-12-18T20:52:25.144Z,103043.94
2022-12-18T20:54:58.541Z,103046.47
2022-12-18T20:57:30.816Z,103046.72
2022-12-18T21:00:00.977Z,103051.75
2022-12-18T21:02:31.387Z,103065.50
2022-12-18T21:05:01.699Z,103058.97
2022-12-18T21:07:31.778Z,103057.56
2022-12-18T21:10:12.972Z,103061.25
2022-12-18T21:13:00.122Z,103062.78
2022-12-18T21:15:33.142Z,103078.84
2022-12-18T21:18:03.304Z,103074.16
2022-12-18T21:20:33.625Z,103088.16
2022-12-18T21:23:16.480Z,103092.75
2022-12-18T21:25:55.980Z,103088.25
2022-12-18T21:28:26.369Z,103074.94
2022-12-18T21:30:56.524Z,103081.88
2022-12-18T21:33:26.717Z,103067.78
2022-12-18T21:35:56.877Z,103071.19
2022-12-18T21:38:27.059Z,103068.25
2022-12-18T21:41:00.010Z,103061.91
2022-12-18T21:43:42.635Z,103062.25
2022-12-18T21:46:12.905Z,103070.13
2022-12-18T21:48:43.582Z,103068.28
2022-12-18T21:51:13.870Z,103069.41
2022-12-18T21:53:43.955Z,103068.66
2022-12-18T21:56:18.256Z,103073.72
2022-12-18T21:58:56.677Z,103067.03
2022-12-18T22:01:36.567Z,103064.72
2022-12-18T22:04:08.021Z,103046.22
2022-12-18T22:06:38.318Z,103041.56
2022-12-18T22:09:09.899Z,103051.53
2022-12-18T22:11:43.147Z,103053.31
2022-12-18T22:14:13.895Z,103053.06
2022-12-18T22:16:44.516Z,103060.19
2022-12-18T22:19:15.681Z,103061.28
2022-12-18T22:21:47.888Z,103054.81
2022-12-18T22:24:19.756Z,103043.38
2022-12-18T22:26:55.825Z,103045.28
2022-12-18T22:29:44.610Z,103041.09
2022-12-18T22:32:23.769Z,103039.47
2022-12-18T22:35:07.980Z,103040.13
2022-12-18T22:37:40.641Z,103051.78
2022-12-18T22:40:14.389Z,103054.34
2022-12-18T22:42:49.888Z,103052.38
2022-12-18T22:45:21.592Z,103050.81
2022-12-18T22:47:51.740Z,103059.88
2022-12-18T22:50:21.926Z,103052.00
2022-12-18T22:52:52.034Z,103049.06
2022-12-18T22:55:22.860Z,103051.19
2022-12-18T22:57:55.566Z,103053.91
2022-12-18T23:00:26.082Z,103059.47
2022-12-18T23:03:00.629Z,103049.31
2022-12-18T23:05:32.722Z,103050.00
2022-12-18T23:08:02.932Z,103050.41
2022-12-18T23:10:33.567Z,103050.41
2022-12-18T23:13:06.372Z,103051.91
2022-12-18T23:15:36.645Z,103058.94
2022-12-18T23:18:06.957Z,103066.34
2022-12-18T23:20:39.118Z,103067.19
2022-12-18T23:23:10.253Z,103078.50
2022-12-18T23:25:40.443Z,103081.31
2022-12-18T23:28:13.208Z,103075.84
2022-12-18T23:30:43.398Z,103075.13
2022-12-18T23:33:13.524Z,103078.78
2022-12-18T23:35:43.751Z,103089.22
2022-12-18T23:38:13.904Z,103095.56
2022-12-18T23:40:44.049Z,103095.25
2022-12-18T23:43:18.684Z,103092.38
2022-12-18T23:45:52.537Z,103088.03
2022-12-18T23:48:25.829Z,103100.63
2022-12-18T23:50:55.947Z,103097.06
2022-12-18T23:53:26.111Z,103100.16
2022-12-18T23:55:56.214Z,103096.38
2022-12-18T23:58:30.185Z,103086.66
